createdAt,value
2022-09-04T00:02:39.387Z,12.16
2022-09-04T00:05:22.806Z,12.14
2022-09-04T00:08:20.392Z,12.10
2022-09-04T00:10:57.118Z,12.09
2022-09-04T00:13:27.992Z,12.12
2022-09-04T00:16:22.164Z,12.07
2022-09-04T00:19:24.094Z,12.08
2022-09-04T00:21:55.086Z,12.02
2022-09-04T00:24:24.743Z,12.03
2022-09-04T00:26:59.470Z,12.06
2022-09-04T00:29:45.463Z,12.04
2022-09-04T00:32:34.959Z,12.01
2022-09-04T00:35:15.322Z,11.90
2022-09-04T00:38:08.842Z,11.82
2022-09-04T00:40:43.820Z,11.81
2022-09-04T00:43:13.350Z,11.83
2022-09-04T00:45:42.987Z,11.91
2022-09-04T00:48:54.550Z,11.90
2022-09-04T00:51:21.135Z,11.87
2022-09-04T00:53:50.526Z,11.77
2022-09-04T00:56:35.925Z,11.72
2022-09-04T00:59:33.405Z,11.62
2022-09-04T01:02:08.774Z,11.59
2022-09-04T01:04:41.936Z,11.59
2022-09-04T01:07:33.784Z,11.56
2022-09-04T01:10:25.395Z,11.54
2022-09-04T01:13:09.733Z,11.55
2022-09-04T01:15:41.324Z,11.52
2022-09-04T01:18:30.864Z,11.50
2022-09-04T01:21:15.605Z,11.42
2022-09-04T01:23:51.695Z,11.36
2022-09-04T01:26:44.643Z,11.29
2022-09-04T01:29:49.545Z,11.29
2022-09-04T01:32:31.310Z,11.27
2022-09-04T01:35:24.083Z,11.19
2022-09-04T01:38:09.302Z,10.97
2022-09-04T01:41:13.417Z,10.94
2022-09-04T01:43:40.136Z,10.96
2022-09-04T01:46:54.609Z,11.12
2022-09-04T01:49:30.208Z,11.13
2022-09-04T01:52:10.057Z,11.13
2022-09-04T01:54:58.154Z,11.14
2022-09-04T01:57:32.051Z,11.16
2022-09-04T02:00:08.339Z,11.08
2022-09-04T02:02:47.040Z,11.10
2022-09-04T02:05:26.705Z,10.98
2022-09-04T02:08:31.208Z,10.90
2022-09-04T02:11:19.472Z,10.81
2022-09-04T02:14:22.209Z,10.83
2022-09-04T02:17:10.663Z,10.79
2022-09-04T02:20:09.487Z,10.77
2022-09-04T02:22:49.514Z,10.76
2022-09-04T02:25:25.236Z,10.86
2022-09-04T02:28:33.777Z,10.79
2022-09-04T02:31:15.018Z,10.69
2022-09-04T02:33:57.110Z,10.65
2022-09-04T02:36:35.826Z,10.67
2022-09-04T02:39:22.959Z,10.62
2022-09-04T02:42:12.008Z,10.64
2022-09-04T02:45:00.342Z,10.70
2022-09-04T02:47:32.706Z,10.64
2022-09-04T02:50:17.414Z,10.64
2022-09-04T02:53:13.217Z,10.63
2022-09-04T02:56:16.587Z,10.49
2022-09-04T02:58:52.300Z,10.42
2022-09-04T03:01:40.347Z,10.35
2022-09-04T03:04:23.597Z,10.36
2022-09-04T03:07:08.883Z,10.39
2022-09-04T03:09:45.931Z,10.43
2022-09-04T03:12:40.486Z,10.49
2022-09-04T03:15:24.485Z,10.49
2022-09-04T03:18:16.269Z,10.51
2022-09-04T03:20:51.305Z,10.56
2022-09-04T03:23:42.508Z,10.61
2022-09-04T03:26:29.295Z,10.55
2022-09-04T03:29:02.585Z,10.54
2022-09-04T03:31:31.409Z,10.51
2022-09-04T03:34:36.901Z,10.50
2022-09-04T03:37:14.036Z,10.44
2022-09-04T03:39:51.447Z,10.48
2022-09-04T03:43:09.507Z,10.56
2022-09-04T03:45:39.656Z,10.57
2022-09-04T03:48:24.447Z,10.60
2022-09-04T03:51:18.186Z,10.60
2022-09-04T03:53:50.800Z,10.55
2022-09-04T03:56:51.313Z,10.58
2022-09-04T03:59:25.410Z,10.55
2022-09-04T04:02:38.508Z,10.47
2022-09-04T04:05:36.997Z,10.39
2022-09-04T04:08:12.309Z,10.41
2022-09-04T04:10:49.286Z,10.41
2022-09-04T04:13:37.541Z,10.37
2022-09-04T04:16:11.047Z,10.34
2022-09-04T04:19:10.875Z,10.22
2022-09-04T04:22:02.244Z,10.23
2022-09-04T04:24:41.079Z,10.36
2022-09-04T04:27:47.088Z,10.43
2022-09-04T04:30:16.992Z,10.34
2022-09-04T04:33:17.333Z,10.25
2022-09-04T04:36:10.124Z,10.29
2022-09-04T04:39:14.906Z,10.34
2022-09-04T04:42:05.732Z,10.31
2022-09-04T04:45:00.278Z,10.28
2022-09-04T04:47:48.338Z,10.16
2022-09-04T04:50:53.468Z,10.17
2022-09-04T04:53:22.896Z,10.08
2022-09-04T04:55:56.875Z,10.12
2022-09-04T04:58:29.985Z,10.10
2022-09-04T05:01:22.793Z,10.13
2022-09-04T05:04:05.799Z,10.16
2022-09-04T05:06:54.176Z,10.14
2022-09-04T05:09:29.997Z,10.17
2022-09-04T05:12:23.543Z,10.23
2022-09-04T05:16:07.299Z,10.17
2022-09-04T05:18:54.331Z,10.22
2022-09-04T05:21:40.539Z,10.32
2022-09-04T05:24:28.749Z,10.37
2022-09-04T05:26:59.548Z,10.40
2022-09-04T05:29:38.710Z,10.42
2022-09-04T05:32:14.188Z,10.46
2022-09-04T05:34:52.905Z,10.47
2022-09-04T05:37:31.299Z,10.55
2022-09-04T05:40:43.163Z,10.62
2022-09-04T05:43:30.882Z,10.72
2022-09-04T05:46:03.493Z,10.77
2022-09-04T05:48:30.002Z,10.89
2022-09-04T05:51:07.894Z,11.02
2022-09-04T05:54:00.795Z,11.09
2022-09-04T05:56:42.872Z,11.18
2022-09-04T05:59:24.207Z,11.25
2022-09-04T06:01:53.700Z,11.44
2022-09-04T06:04:38.517Z,11.57
2022-09-04T06:07:41.549Z,11.82
2022-09-04T06:10:14.607Z,12.12
2022-09-04T06:12:59.965Z,12.38
2022-09-04T06:15:38.128Z,12.71
2022-09-04T06:18:19.993Z,12.98
2022-09-04T06:21:13.840Z,13.27
2022-09-04T06:23:40.311Z,13.53
2022-09-04T06:26:15.408Z,13.80
2022-09-04T06:29:19.071Z,14.15
2022-09-04T06:32:07.388Z,14.48
2022-09-04T06:34:58.898Z,14.94
2022-09-04T06:37:28.369Z,15.17
2022-09-04T06:40:13.116Z,15.27
2022-09-04T06:42:52.612Z,15.62
2022-09-04T06:45:50.481Z,16.03
2022-09-04T06:48:38.720Z,16.32
2022-09-04T06:51:32.703Z,16.62
2022-09-04T06:54:34.204Z,16.76
2022-09-04T06:57:20.686Z,16.87
2022-09-04T07:00:01.976Z,17.02
2022-09-04T07:02:40.732Z,17.27
2022-09-04T07:05:31.936Z,17.48
2022-09-04T07:08:33.218Z,17.81
2022-09-04T07:11:18.157Z,17.99
2022-09-04T07:14:04.420Z,18.16
2022-09-04T07:16:55.531Z,18.36
2022-09-04T07:19:25.158Z,18.64
2022-09-04T07:22:19.687Z,18.85
2022-09-04T07:25:01.530Z,18.56
2022-09-04T07:28:00.426Z,18.60
2022-09-04T07:30:30.150Z,18.67
2022-09-04T07:33:00.226Z,18.84
2022-09-04T07:35:54.396Z,19.17
2022-09-04T07:38:28.743Z,19.44
2022-09-04T07:41:11.308Z,19.63
2022-09-04T07:43:57.211Z,19.81
2022-09-04T07:46:36.231Z,20.07
2022-09-04T07:49:10.179Z,20.31
2022-09-04T07:51:43.333Z,20.53
2022-09-04T07:54:29.255Z,20.63
2022-09-04T07:57:14.069Z,20.77
2022-09-04T08:00:21.129Z,20.75
2022-09-04T08:03:13.524Z,20.81
2022-09-04T08:05:54.770Z,20.95
2022-09-04T08:08:27.309Z,20.89
2022-09-04T08:11:02.462Z,21.03
2022-09-04T08:13:45.600Z,21.23
2022-09-04T08:16:36.372Z,21.42
2022-09-04T08:19:17.040Z,21.51
2022-09-04T08:21:45.108Z,21.61
2022-09-04T08:24:44.550Z,21.97
2022-09-04T08:27:33.881Z,22.14
2022-09-04T08:30:06.427Z,21.72
2022-09-04T08:33:20.538Z,21.72
2022-09-04T08:35:58.737Z,21.72
2022-09-04T08:38:43.220Z,21.75
2022-09-04T08:41:28.441Z,21.83
2022-09-04T08:44:27.001Z,22.12
2022-09-04T08:47:02.591Z,22.47
2022-09-04T08:49:52.069Z,22.78
2022-09-04T08:52:39.925Z,23.02
2022-09-04T08:55:29.516Z,23.11
2022-09-04T08:58:08.187Z,23.31
2022-09-04T09:00:54.973Z,23.54
2022-09-04T09:03:56.783Z,23.87
2022-09-04T09:07:00.675Z,24.02
2022-09-04T09:09:39.576Z,24.15
2022-09-04T09:12:27.537Z,24.21
2022-09-04T09:15:14.174Z,24.49
2022-09-04T09:17:49.723Z,24.81
2022-09-04T09:20:38.983Z,24.87
2022-09-04T09:23:29.635Z,25.21
2022-09-04T09:26:14.387Z,25.57
2022-09-04T09:29:02.322Z,25.90
2022-09-04T09:31:38.380Z,26.18
2022-09-04T09:34:11.279Z,27.03
2022-09-04T09:36:53.225Z,27.55
2022-09-04T09:40:14.164Z,28.09
2022-09-04T09:43:08.870Z,29.16
2022-09-04T09:45:51.165Z,29.80
2022-09-04T09:48:32.841Z,29.43
2022-09-04T09:51:42.060Z,28.94
2022-09-04T09:54:30.355Z,29.19
2022-09-04T09:57:21.665Z,30.19
2022-09-04T10:00:12.785Z,29.62
2022-09-04T10:02:58.021Z,28.25
2022-09-04T10:05:39.984Z,26.89
2022-09-04T10:08:36.005Z,26.02
2022-09-04T10:11:24.563Z,25.60
2022-09-04T10:14:09.726Z,25.19
2022-09-04T10:17:01.501Z,25.01
2022-09-04T10:19:39.416Z,24.75
2022-09-04T10:22:18.257Z,24.27
2022-09-04T10:25:17.571Z,24.10
2022-09-04T10:28:05.762Z,24.02
2022-09-04T10:31:03.934Z,24.02
2022-09-04T10:33:48.968Z,24.13
2022-09-04T10:36:27.837Z,24.16
2022-09-04T10:39:47.006Z,24.11
2022-09-04T10:42:41.155Z,23.86
2022-09-04T10:45:31.466Z,23.83
2022-09-04T10:48:42.650Z,23.98
2022-09-04T10:51:23.890Z,24.01
2022-09-04T10:54:07.779Z,24.94
2022-09-04T10:56:47.306Z,26.33
2022-09-04T10:59:32.404Z,26.74
2022-09-04T11:02:33.153Z,26.27
2022-09-04T11:05:23.456Z,25.85
2022-09-04T11:08:06.977Z,25.48
2022-09-04T11:11:02.451Z,25.01
2022-09-04T11:13:56.443Z,24.31
2022-09-04T11:16:47.729Z,24.12
2022-09-04T11:19:54.940Z,24.00
2022-09-04T11:22:40.310Z,24.02
2022-09-04T11:25:25.729Z,24.20
2022-09-04T11:27:52.513Z,24.32
2022-09-04T11:30:26.981Z,25.22
2022-09-04T11:33:21.904Z,25.99
2022-09-04T11:35:57.734Z,25.98
2022-09-04T11:38:51.555Z,25.46
2022-09-04T11:41:39.990Z,25.31
2022-09-04T11:44:25.827Z,25.36
2022-09-04T11:47:23.429Z,25.36
2022-09-04T11:49:59.123Z,25.34
2022-09-04T11:52:48.407Z,25.68
2022-09-04T11:55:31.056Z,27.46
2022-09-04T11:58:17.853Z,30.02
2022-09-04T12:01:00.449Z,33.37
2022-09-04T12:03:45.846Z,34.64
2022-09-04T12:06:35.096Z,36.83
2022-09-04T12:09:15.119Z,38.17
2022-09-04T12:12:10.801Z,37.83
2022-09-04T12:14:40.662Z,39.31
2022-09-04T12:17:11.844Z,40.46
2022-09-04T12:19:53.859Z,41.90
2022-09-04T12:22:38.987Z,42.98
2022-09-04T12:25:14.619Z,42.64
2022-09-04T12:27:59.416Z,38.33
2022-09-04T12:30:34.802Z,36.63
2022-09-04T12:33:39.837Z,38.25
2022-09-04T12:36:14.446Z,41.25
2022-09-04T12:39:03.521Z,41.08
2022-09-04T12:41:33.022Z,38.91
2022-09-04T12:44:25.690Z,36.45
2022-09-04T12:47:05.754Z,34.38
2022-09-04T12:49:38.364Z,33.21
2022-09-04T12:52:29.671Z,31.07
2022-09-04T12:55:14.710Z,28.62
2022-09-04T12:58:14.654Z,28.33
2022-09-04T13:01:03.051Z,28.31
2022-09-04T13:03:49.914Z,28.20
2022-09-04T13:06:32.229Z,28.22
2022-09-04T13:09:19.878Z,28.34
2022-09-04T13:11:53.570Z,29.03
2022-09-04T13:14:26.210Z,30.84
2022-09-04T13:17:31.299Z,33.29
2022-09-04T13:20:24.399Z,32.62
2022-09-04T13:23:11.104Z,32.47
2022-09-04T13:25:48.304Z,32.32
2022-09-04T13:28:37.893Z,31.24
2022-09-04T13:31:07.357Z,30.75
2022-09-04T13:34:03.820Z,30.08
2022-09-04T13:36:48.226Z,30.09
2022-09-04T13:39:23.582Z,29.90
2022-09-04T13:42:28.733Z,29.58
2022-09-04T13:45:12.234Z,29.08
2022-09-04T13:48:18.832Z,28.75
2022-09-04T13:50:55.814Z,28.50
2022-09-04T13:53:29.459Z,28.33
2022-09-04T13:55:59.888Z,28.25
2022-09-04T13:58:30.538Z,27.87
2022-09-04T14:01:00.438Z,27.67
2022-09-04T14:03:36.911Z,27.48
2022-09-04T14:06:05.557Z,27.21
2022-09-04T14:08:34.506Z,27.05
2022-09-04T14:11:30.259Z,26.98
2022-09-04T14:14:21.103Z,26.92
2022-09-04T14:16:49.623Z,26.78
2022-09-04T14:19:19.129Z,26.61
2022-09-04T14:22:02.463Z,26.43
2022-09-04T14:24:47.879Z,26.39
2022-09-04T14:27:46.744Z,26.11
2022-09-04T14:30:15.725Z,26.06
2022-09-04T14:33:06.254Z,26.09
2022-09-04T14:35:47.751Z,25.97
2022-09-04T14:38:24.380Z,25.88
2022-09-04T14:41:10.242Z,25.58
2022-09-04T14:44:03.382Z,25.47
2022-09-04T14:46:46.508Z,25.41
2022-09-04T14:49:21.378Z,25.07
2022-09-04T14:51:49.362Z,24.79
2022-09-04T14:54:19.297Z,24.67
2022-09-04T14:56:51.195Z,24.45
2022-09-04T14:59:32.944Z,24.34
2022-09-04T15:02:08.839Z,24.22
2022-09-04T15:04:46.680Z,24.16
2022-09-04T15:07:35.295Z,24.11
2022-09-04T15:10:16.768Z,24.04
2022-09-04T15:12:52.058Z,24.01
2022-09-04T15:15:23.188Z,24.00
2022-09-04T15:18:02.825Z,23.96
2022-09-04T15:20:31.648Z,23.93
2022-09-04T15:23:13.203Z,23.91
2022-09-04T15:26:00.049Z,23.88
2022-09-04T15:28:47.780Z,23.81
2022-09-04T15:31:27.103Z,23.68
2022-09-04T15:34:00.572Z,23.54
2022-09-04T15:36:27.643Z,23.42
2022-09-04T15:39:00.274Z,23.30
2022-09-04T15:41:34.103Z,23.21
2022-09-04T15:44:34.311Z,23.17
2022-09-04T15:47:07.190Z,23.16
2022-09-04T15:49:55.291Z,23.12
2022-09-04T15:52:37.296Z,23.06
2022-09-04T15:55:36.329Z,22.96
2022-09-04T15:58:25.911Z,22.90
2022-09-04T16:01:16.852Z,22.91
2022-09-04T16:04:02.574Z,22.88
2022-09-04T16:06:38.987Z,22.87
2022-09-04T16:09:18.012Z,22.86
2022-09-04T16:11:59.679Z,22.83
2022-09-04T16:14:35.849Z,22.76
2022-09-04T16:17:11.995Z,22.74
2022-09-04T16:19:44.581Z,22.71
2022-09-04T16:22:29.081Z,22.80
2022-09-04T16:25:23.607Z,22.95
2022-09-04T16:28:03.890Z,22.96
2022-09-04T16:30:34.894Z,22.98
2022-09-04T16:33:01.631Z,22.95
2022-09-04T16:35:32.180Z,22.88
2022-09-04T16:38:06.034Z,22.86
2022-09-04T16:40:48.699Z,22.85
2022-09-04T16:43:41.580Z,22.85
2022-09-04T16:46:14.283Z,22.85
2022-09-04T16:48:48.746Z,22.86
2022-09-04T16:51:41.378Z,22.82
2022-09-04T16:54:19.578Z,22.75
2022-09-04T16:56:51.093Z,22.75
2022-09-04T16:59:24.777Z,22.79
2022-09-04T17:01:54.101Z,22.83
2022-09-04T17:04:31.959Z,22.83
2022-09-04T17:07:08.731Z,22.78
2022-09-04T17:10:01.708Z,22.72
2022-09-04T17:12:44.811Z,22.64
2022-09-04T17:15:22.368Z,22.58
2022-09-04T17:17:51.139Z,22.45
2022-09-04T17:21:42.905Z,22.40
2022-09-04T17:24:58.127Z,22.39
2022-09-04T17:29:18.569Z,22.34
2022-09-04T17:29:47.084Z,22.33
2022-09-04T17:34:32.818Z,22.32
2022-09-04T17:40:42.841Z,22.32
2022-09-04T17:40:52.073Z,22.30
2022-09-04T17:41:52.054Z,22.31
2022-09-04T17:44:33.926Z,22.31
2022-09-04T17:47:18.512Z,22.26
2022-09-04T17:49:49.763Z,22.23
2022-09-04T17:52:28.315Z,22.18
2022-09-04T17:55:21.367Z,22.10
2022-09-04T17:58:15.584Z,22.00
2022-09-04T18:01:14.330Z,21.88
2022-09-04T18:04:20.491Z,21.75
2022-09-04T18:06:54.802Z,21.60
2022-09-04T18:09:29.700Z,21.44
2022-09-04T18:12:11.059Z,21.27
2022-09-04T18:14:41.978Z,21.16
2022-09-04T18:17:16.539Z,21.02
2022-09-04T18:19:48.575Z,20.88
2022-09-04T18:22:33.441Z,20.69
2022-09-04T18:25:17.148Z,20.52
2022-09-04T18:28:10.972Z,20.36
2022-09-04T18:33:14.048Z,20.19
2022-09-04T18:37:10.425Z,20.04
2022-09-04T18:37:17.612Z,19.94
2022-09-04T18:39:36.434Z,19.81
2022-09-04T18:50:21.325Z,19.63
2022-09-04T18:50:21.734Z,19.46
2022-09-04T18:50:40.371Z,19.34
2022-09-04T18:53:39.957Z,19.08
2022-09-04T18:56:22.279Z,19.01
2022-09-04T18:58:54.346Z,18.89
2022-09-04T19:01:27.170Z,18.80
2022-09-04T19:04:32.150Z,18.73
2022-09-04T19:07:07.729Z,18.65
2022-09-04T19:09:56.735Z,18.61
2022-09-04T19:12:35.854Z,18.43
2022-09-04T19:15:36.652Z,18.27
2022-09-04T19:18:18.983Z,18.12
2022-09-04T19:21:04.747Z,18.00
2022-09-04T19:23:35.528Z,17.95
2022-09-04T19:26:09.489Z,17.95
2022-09-04T19:28:52.609Z,17.89
2022-09-04T19:31:34.066Z,17.83
2022-09-04T19:34:28.340Z,17.87
2022-09-04T19:37:02.300Z,17.82
2022-09-04T19:46:05.151Z,17.72
2022-09-04T19:46:14.472Z,17.58
2022-09-04T19:46:25.703Z,17.47
2022-09-04T19:52:15.024Z,17.37
2022-09-04T19:53:22.120Z,17.26
2022-09-04T19:55:25.157Z,17.15
2022-09-04T19:58:12.170Z,17.10
2022-09-04T20:00:54.876Z,17.07
2022-09-04T20:03:39.650Z,16.99
2022-09-04T20:06:36.829Z,17.00
2022-09-04T20:09:21.722Z,16.93
2022-09-04T20:12:21.178Z,16.94
2022-09-04T20:15:13.777Z,16.91
2022-09-04T20:18:04.151Z,16.92
2022-09-04T20:21:04.096Z,16.95
2022-09-04T20:23:53.972Z,16.88
2022-09-04T20:26:26.899Z,16.78
2022-09-04T20:29:15.787Z,16.73
2022-09-04T20:31:49.433Z,16.65
2022-09-04T20:34:38.898Z,16.55
2022-09-04T20:37:28.311Z,16.52
2022-09-04T20:40:26.749Z,16.40
2022-09-04T20:43:03.058Z,16.32
2022-09-04T20:47:59.663Z,16.24
2022-09-04T20:52:49.775Z,16.22
2022-09-04T20:52:54.035Z,16.16
2022-09-04T20:54:44.376Z,16.16
2022-09-04T21:01:05.423Z,16.09
2022-09-04T21:03:15.015Z,16.09
2022-09-04T21:03:27.941Z,16.05
2022-09-04T21:06:07.626Z,16.08
2022-09-04T21:08:52.633Z,16.01
2022-09-04T21:11:40.732Z,15.92
2022-09-04T21:14:17.103Z,15.82
2022-09-04T21:17:29.263Z,15.71
2022-09-04T21:20:59.759Z,15.76
2022-09-04T21:23:35.345Z,15.74
2022-09-04T21:26:20.227Z,15.65
2022-09-04T21:29:10.624Z,15.63
2022-09-04T21:32:05.257Z,15.66
2022-09-04T21:34:43.741Z,15.62
2022-09-04T21:37:40.943Z,15.60
2022-09-04T21:40:28.005Z,15.52
2022-09-04T21:43:22.340Z,15.40
2022-09-04T21:46:35.067Z,15.39
2022-09-04T21:49:26.923Z,15.32
2022-09-04T21:51:53.644Z,15.26
2022-09-04T21:56:21.469Z,15.29
2022-09-04T22:02:37.308Z,15.28
2022-09-04T22:02:40.453Z,15.20
2022-09-04T22:03:32.256Z,15.09
2022-09-04T22:06:14.318Z,15.06
2022-09-04T22:13:29.661Z,15.04
2022-09-04T22:13:38.391Z,15.07
2022-09-04T22:14:40.954Z,15.06
2022-09-04T22:17:32.866Z,15.07
2022-09-04T22:20:29.741Z,14.94
2022-09-04T22:23:45.126Z,14.88
2022-09-04T22:26:23.312Z,14.87
2022-09-04T22:28:57.143Z,14.88
2022-09-04T22:31:29.463Z,14.88
2022-09-04T22:34:18.066Z,14.80
2022-09-04T22:37:21.929Z,14.81
2022-09-04T22:40:13.038Z,14.75
2022-09-04T22:43:18.618Z,14.72
2022-09-04T22:46:30.622Z,14.68
2022-09-04T22:49:13.107Z,14.67
2022-09-04T22:52:19.823Z,14.61
2022-09-04T22:54:52.635Z,14.62
2022-09-04T22:57:46.553Z,14.57
2022-09-04T23:00:16.048Z,14.52
2022-09-04T23:03:10.151Z,14.48
2022-09-04T23:05:49.496Z,14.45
2022-09-04T23:13:47.607Z,14.42
2022-09-04T23:13:51.848Z,14.40
2022-09-04T23:14:51.086Z,14.41
2022-09-04T23:18:53.044Z,14.34
2022-09-04T23:26:36.244Z,14.24
2022-09-04T23:26:54.233Z,14.24
2022-09-04T23:27:28.600Z,14.15
2022-09-04T23:30:05.036Z,14.15
2022-09-04T23:32:36.089Z,14.18
2022-09-04T23:35:14.400Z,14.19
2022-09-04T23:37:44.829Z,14.22
2022-09-04T23:40:28.610Z,14.17
2022-09-04T23:43:13.386Z,14.17
2022-09-04T23:45:53.940Z,14.17
2022-09-04T23:49:08.298Z,14.15
2022-09-04T23:51:45.783Z,14.12
2022-09-04T23:54:50.216Z,14.14
2022-09-04T23:57:36.356Z,14.10
